Time;durP1;ratioP1;P1;durP2;ratioP2;P2;SDS_P1;SDS_P2;PMS_P1;PMS_P2;Temp;Humidity;BMP_temperature;BMP_pressure;BME280_temperature;BME280_humidity;BME280_pressure;Samples;Min_cycle;Max_cycle;Signal;HPM_P1;HPM_P2
2023/03/31 00:02:20;;;;;;;4.82;1.42;;;11.50;99.90;;;-144.05;68.98;56925.28;5084861;28;20036;-78
2023/03/31 00:04:53;;;;;;;7.25;2.13;;;11.40;99.90;;;-144.05;69.21;56933.78;5067014;28;20158;-79
2023/03/31 00:07:23;;;;;;;4.63;1.40;;;11.30;99.90;;;-144.05;69.00;56912.56;5084988;28;20025;-78
2023/03/31 00:09:53;;;;;;;9.48;1.77;;;11.30;99.90;;;-144.05;69.29;56929.53;5066880;28;20032;-77
2023/03/31 00:12:20;;;;;;;9.63;1.40;;;11.20;99.90;;;-144.05;69.09;56946.53;5082468;28;20059;-78
2023/03/31 00:14:46;;;;;;;6.07;1.67;;;11.20;99.90;;;-144.05;69.48;56940.16;5080659;28;20033;-78
2023/03/31 00:17:13;;;;;;;5.30;1.10;;;11.20;99.90;;;-144.05;69.29;56948.66;5064140;28;20034;-78
2023/03/31 00:19:40;;;;;;;5.05;1.33;;;11.10;99.90;;;-144.05;69.36;56940.16;5082989;28;20033;-77
2023/03/31 00:22:07;;;;;;;5.40;1.98;;;11.00;99.90;;;-144.05;69.85;56925.28;5082285;28;20029;-77
2023/03/31 00:24:34;;;;;;;8.57;1.17;;;11.00;99.90;;;-144.05;69.51;56914.69;5065619;28;20031;-77
2023/03/31 00:27:05;;;;;;;4.13;1.10;;;11.00;99.90;;;-144.05;69.40;56931.66;5084082;28;20028;-76
2023/03/31 00:29:32;;;;;;;3.88;1.38;;;11.00;99.90;;;-144.05;69.39;56921.06;5065808;28;20033;-79
2023/03/31 00:31:58;;;;;;;5.63;1.70;;;11.00;99.90;;;-144.05;69.38;56923.19;5066233;28;20025;-77
2023/03/31 00:34:26;;;;;;;5.50;1.33;;;11.00;99.90;;;-144.05;69.49;56923.19;5084766;28;20028;-78
2023/03/31 00:36:55;;;;;;;4.38;1.38;;;11.00;99.90;;;-144.05;69.63;56929.53;5067164;28;20162;-76
2023/03/31 00:39:23;;;;;;;4.97;1.50;;;10.90;99.90;;;-144.05;69.30;56933.78;5084756;28;20029;-77
2023/03/31 00:41:50;;;;;;;5.63;1.17;;;11.00;99.90;;;-144.05;69.27;56944.41;5066342;28;20036;-78
2023/03/31 00:44:28;;;;;;;7.78;2.03;;;10.90;99.90;;;-144.05;69.59;56948.66;5084783;28;20111;-79
2023/03/31 00:47:14;;;;;;;8.45;1.73;;;10.90;99.90;;;-144.05;69.56;56923.19;5063644;28;20483;-78
2023/03/31 00:49:47;;;;;;;6.80;1.80;;;10.90;99.90;;;-144.05;69.57;56933.78;5082731;28;20025;-79
2023/03/31 00:52:25;;;;;;;8.90;1.60;;;10.90;99.90;;;-144.05;69.38;56918.94;5083404;28;20032;-80
2023/03/31 00:55:03;;;;;;;5.35;1.65;;;10.90;99.90;;;-144.05;69.38;56925.28;5065986;28;20035;-78
2023/03/31 00:57:38;;;;;;;5.10;1.50;;;10.90;99.90;;;-144.05;69.41;56946.53;5066159;28;20063;-79
2023/03/31 01:00:14;;;;;;;5.13;1.40;;;10.90;99.90;;;-144.05;69.11;56927.41;5084011;28;20078;-79
2023/03/31 01:02:54;;;;;;;8.05;1.48;;;10.90;99.90;;;-144.05;69.19;56940.16;5084657;28;20043;-79
2023/03/31 01:05:30;;;;;;;7.70;1.52;;;10.90;99.90;;;-144.05;69.36;56927.41;5067118;28;20047;-79
2023/03/31 01:08:01;;;;;;;8.07;1.65;;;10.90;99.90;;;-144.05;69.20;56921.06;5083072;28;20050;-78
2023/03/31 01:10:31;;;;;;;4.38;1.23;;;10.90;99.90;;;-144.05;68.64;56940.16;5083994;28;20033;-78
2023/03/31 01:12:58;;;;;;;6.03;1.20;;;11.00;99.90;;;-144.05;68.65;56921.06;5079052;28;20111;-77
2023/03/31 01:15:24;;;;;;;5.45;1.23;;;11.10;99.90;;;-144.05;68.01;56925.28;5079411;28;20028;-79
2023/03/31 01:17:54;;;;;;;4.57;1.23;;;11.10;99.90;;;-144.05;68.36;56938.03;5079829;28;20033;-78
2023/03/31 01:20:43;;;;;;;4.93;1.23;;;11.00;99.90;;;-144.05;69.45;56952.91;5080111;28;20058;-78
2023/03/31 01:24:02;;;;;;;8.93;1.65;;;11.00;99.90;;;-144.05;70.78;56946.53;5061990;28;20025;-77
2023/03/31 01:27:21;;;;;;;4.55;1.20;;;10.90;99.90;;;-144.05;70.68;56935.91;5080514;28;20491;-78
2023/03/31 01:30:27;;;;;;;6.88;1.48;;;10.90;99.90;;;-144.05;71.04;56927.41;5080436;28;20043;-77
2023/03/31 01:33:25;;;;;;;6.93;1.35;;;10.90;99.90;;;-144.05;71.73;56946.53;5081049;28;20032;-78
2023/03/31 01:36:41;;;;;;;8.68;1.58;;;10.90;99.90;;;-144.05;72.63;56925.28;5081642;28;20487;-80
2023/03/31 01:39:57;;;;;;;6.18;1.70;;;10.80;99.90;;;-144.05;74.66;56908.31;5060678;28;20025;-77
2023/03/31 01:43:11;;;;;;;10.77;1.60;;;10.80;99.90;;;-144.05;77.01;56916.81;5077048;28;20060;-77
2023/03/31 01:46:05;;;;;;;6.57;1.60;;;10.60;99.90;;;-144.05;77.81;56918.94;5058833;28;20116;-77
2023/03/31 01:48:58;;;;;;;4.18;1.60;;;10.50;99.90;;;-144.05;77.92;56952.91;5077408;28;20028;-77
2023/03/31 01:51:50;;;;;;;5.43;1.73;;;10.50;99.90;;;-144.05;78.05;56940.16;5058773;28;20044;-77
2023/03/31 01:55:03;;;;;;;4.30;1.35;;;10.40;99.90;;;-144.05;77.53;56912.56;5077227;28;20031;-79
2023/03/31 01:57:40;;;;;;;7.55;2.03;;;10.40;99.90;;;-144.05;78.55;56925.28;5058587;28;20025;-78
2023/03/31 02:00:23;;;;;;;5.50;1.70;;;10.40;99.90;;;-144.05;79.75;56929.53;5076615;28;20044;-78
2023/03/31 02:03:13;;;;;;;6.18;1.30;;;10.30;99.90;;;-144.05;79.22;56921.06;5058484;28;20028;-77
2023/03/31 02:06:12;;;;;;;7.00;1.67;;;10.30;99.90;;;-144.05;79.38;56935.91;5078448;28;20373;-77
2023/03/31 02:09:01;;;;;;;8.27;1.67;;;10.20;99.90;;;-144.05;79.32;56916.81;5078288;28;20059;-78
2023/03/31 02:11:32;;;;;;;6.90;1.52;;;10.20;99.90;;;-144.05;79.26;56946.53;5058922;28;20064;-77
2023/03/31 02:14:04;;;;;;;7.20;1.65;;;10.20;99.90;;;-144.05;79.65;56940.16;5078106;28;20054;-77
2023/03/31 02:16:40;;;;;;;17.75;2.42;;;10.10;99.90;;;-144.05;79.88;56923.19;5078399;28;20104;-78
2023/03/31 02:19:09;;;;;;;8.77;1.85;;;10.10;99.90;;;-144.05;80.00;56940.16;5079560;28;20044;-79
2023/03/31 02:21:40;;;;;;;7.32;1.70;;;10.10;99.90;;;-144.05;80.15;56933.78;5078689;28;20072;-78
2023/03/31 02:24:14;;;;;;;5.40;1.75;;;10.10;99.90;;;-144.05;80.41;56940.16;5061642;28;20035;-76
2023/03/31 02:27:21;;;;;;;11.00;1.92;;;10.10;99.90;;;-144.05;80.55;56940.16;5060628;28;20040;-78
2023/03/31 02:29:48;;;;;;;8.35;1.88;;;10.20;99.90;;;-144.05;80.69;56918.94;5079217;28;20454;-78
2023/03/31 02:32:35;;;;;;;11.82;2.08;;;10.10;99.90;;;-144.05;80.87;56923.19;5079221;28;20074;-78
2023/03/31 02:35:03;;;;;;;7.95;1.42;;;10.10;99.90;;;-144.05;80.59;56944.41;5061595;28;20025;-76
2023/03/31 02:37:30;;;;;;;9.00;1.80;;;10.10;99.90;;;-144.05;80.98;56929.53;5079852;28;20087;-79
2023/03/31 02:40:07;;;;;;;10.27;1.90;;;10.10;99.90;;;-144.05;81.23;56933.78;5061775;28;20033;-77
2023/03/31 02:42:33;;;;;;;8.23;1.40;;;10.10;99.90;;;-144.05;81.16;56921.06;5079181;28;20032;-76
2023/03/31 02:45:48;;;;;;;6.07;1.35;;;10.10;99.90;;;-144.05;81.72;56914.69;5079285;28;20029;-76
2023/03/31 02:48:26;;;;;;;7.28;1.90;;;10.10;99.90;;;-144.05;81.76;56935.91;5077519;28;20032;-76
2023/03/31 02:51:07;;;;;;;9.98;2.10;;;10.10;99.90;;;-144.05;81.36;56908.31;5061696;28;20054;-79
2023/03/31 02:53:50;;;;;;;7.88;1.75;;;10.20;99.90;;;-144.05;82.00;56912.56;5060660;28;20031;-77
2023/03/31 02:56:51;;;;;;;7.90;2.30;;;10.20;99.90;;;-144.05;82.57;56921.06;5060566;28;20032;-78
2023/03/31 02:59:45;;;;;;;10.95;3.03;;;10.20;99.90;;;-144.05;82.31;56963.53;5060946;28;20021;-78
2023/03/31 03:03:05;;;;;;;7.65;2.08;;;10.20;99.90;;;-144.05;82.82;56927.41;5059525;28;20187;-77
2023/03/31 03:06:05;;;;;;;7.88;2.25;;;10.30;99.90;;;-144.05;81.76;56952.91;5076328;28;20029;-77
2023/03/31 03:09:23;;;;;;;10.18;2.03;;;10.40;99.90;;;-144.05;82.17;56914.69;5059783;28;20074;-78
2023/03/31 03:12:49;;;;;;;12.15;2.38;;;10.30;99.90;;;-144.05;82.52;56918.94;5076007;28;20024;-77
2023/03/31 03:15:46;;;;;;;10.98;2.47;;;10.40;99.90;;;-144.05;82.14;56925.28;5038654;28;20361;-77
2023/03/31 03:18:13;;;;;;;7.72;2.05;;;10.40;99.90;;;-144.05;82.44;56955.03;5079019;22;20512;-76
2023/03/31 03:20:47;;;;;;;9.48;1.85;;;10.30;99.90;;;-144.05;82.30;56916.81;5016793;28;20147;-76
2023/03/31 03:23:16;;;;;;;8.55;2.17;;;10.30;99.90;;;-144.05;82.59;56938.03;5016853;28;20033;-79
2023/03/31 03:25:43;;;;;;;9.18;1.83;;;10.30;99.90;;;-144.05;82.40;56921.06;5034153;28;20025;-76
2023/03/31 03:28:10;;;;;;;11.68;2.45;;;10.30;99.90;;;-144.05;82.77;56918.94;5042222;28;20044;-77
2023/03/31 03:30:36;;;;;;;12.93;2.88;;;10.20;99.90;;;-144.05;83.12;56950.78;5054801;28;20112;-77
2023/03/31 03:33:05;;;;;;;12.57;2.28;;;10.20;99.90;;;-144.05;83.18;56940.16;5039961;28;20028;-78
2023/03/31 03:35:32;;;;;;;13.88;3.13;;;10.30;99.90;;;-144.05;82.97;56946.53;5040476;28;20102;-79
2023/03/31 03:37:58;;;;;;;11.35;2.03;;;10.20;99.90;;;-144.05;83.24;56950.78;5059064;28;20025;-76
2023/03/31 03:40:24;;;;;;;9.73;2.58;;;10.20;99.90;;;-144.05;82.62;56923.19;5059287;28;20116;-79
2023/03/31 03:42:50;;;;;;;14.20;2.80;;;10.20;99.90;;;-144.05;82.52;56950.78;5040762;28;20128;-77
2023/03/31 03:45:16;;;;;;;6.78;2.05;;;10.20;99.90;;;-144.05;82.45;56933.78;5059244;28;20451;-78
2023/03/31 03:47:41;;;;;;;10.25;2.17;;;10.10;99.90;;;-144.05;83.06;56929.53;5060609;28;20036;-79
2023/03/31 03:50:09;;;;;;;8.48;1.90;;;10.20;99.90;;;-144.05;83.09;56931.66;5059299;28;20033;-77
2023/03/31 03:52:35;;;;;;;12.48;2.20;;;10.20;99.90;;;-144.05;83.19;56925.28;5040674;28;20032;-77
2023/03/31 03:55:00;;;;;;;10.77;2.13;;;10.20;99.90;;;-144.05;82.87;56925.28;5060163;28;20036;-80
2023/03/31 03:57:27;;;;;;;10.30;2.55;;;10.10;99.90;;;-144.05;83.18;56944.41;5058622;28;20037;-78
2023/03/31 03:59:52;;;;;;;14.85;2.22;;;10.10;99.90;;;-144.05;83.39;56904.06;5058304;28;20396;-77
2023/03/31 04:02:18;;;;;;;12.82;1.88;;;10.10;99.90;;;-144.05;83.36;56923.19;5058936;28;20033;-80
2023/03/31 04:04:44;;;;;;;14.32;2.20;;;10.20;99.90;;;-144.05;82.71;56929.53;5059029;28;20036;-78
2023/03/31 04:07:10;;;;;;;13.68;2.00;;;10.20;99.90;;;-144.05;82.78;56927.41;5041040;28;20033;-80
2023/03/31 04:09:36;;;;;;;8.18;1.83;;;10.20;99.90;;;-144.05;82.25;56933.78;5040419;28;20116;-78
2023/03/31 04:12:02;;;;;;;10.55;1.73;;;10.20;99.90;;;-144.05;81.99;56935.91;5059891;28;20408;-79
2023/03/31 04:14:28;;;;;;;8.05;1.60;;;10.20;99.90;;;-144.05;81.77;56940.16;5060121;28;20075;-78
2023/03/31 04:16:57;;;;;;;5.85;1.70;;;10.20;99.90;;;-144.05;82.13;56940.16;5059802;28;20120;-78
2023/03/31 04:19:24;;;;;;;9.55;1.75;;;10.20;99.90;;;-144.05;81.71;56938.03;5059295;28;20033;-79
2023/03/31 04:21:57;;;;;;;9.40;1.63;;;10.20;99.90;;;-144.05;81.54;56933.78;5060432;28;20033;-80
2023/03/31 04:24:29;;;;;;;10.40;1.67;;;10.20;99.90;;;-144.05;81.80;56944.41;5059174;28;20029;-79
2023/03/31 04:26:56;;;;;;;7.75;2.10;;;10.20;99.90;;;-144.05;81.54;56944.41;5059628;28;20071;-77
2023/03/31 04:29:25;;;;;;;7.45;2.20;;;10.20;99.90;;;-144.05;81.57;56948.66;5044127;28;20029;-79
2023/03/31 04:31:57;;;;;;;12.02;2.05;;;10.10;99.90;;;-144.05;81.16;56942.28;5059519;28;20067;-77
2023/03/31 04:34:33;;;;;;;11.38;1.70;;;10.20;99.90;;;-144.05;80.95;56933.78;5040362;28;20021;-78
2023/03/31 04:37:01;;;;;;;9.32;1.65;;;10.20;99.90;;;-144.05;80.92;56940.16;5058957;28;20064;-79
2023/03/31 04:39:31;;;;;;;5.93;1.50;;;10.20;99.90;;;-144.05;81.41;56948.66;5056758;28;20021;-79
2023/03/31 04:41:59;;;;;;;12.10;1.88;;;10.10;99.90;;;-144.05;81.46;56912.56;5055539;28;20029;-76
2023/03/31 04:44:26;;;;;;;12.02;2.05;;;10.20;99.90;;;-144.05;81.41;56931.66;5037615;28;20036;-78
2023/03/31 04:46:53;;;;;;;13.38;2.33;;;10.10;99.90;;;-144.05;81.56;56944.41;5037746;28;20341;-77
2023/03/31 04:49:19;;;;;;;7.75;2.15;;;10.20;99.90;;;-144.05;81.47;56933.78;5055401;28;20129;-77
2023/03/31 04:51:45;;;;;;;12.13;2.38;;;10.20;99.90;;;-144.05;81.21;56929.53;5055096;28;20025;-78
2023/03/31 04:54:11;;;;;;;11.00;1.92;;;10.20;99.90;;;-144.05;81.52;56952.91;5055837;28;20082;-78
2023/03/31 04:56:37;;;;;;;8.45;1.75;;;10.20;99.90;;;-144.05;80.94;56935.91;5056679;28;20024;-78
2023/03/31 04:59:04;;;;;;;15.27;2.42;;;10.20;99.90;;;-144.05;81.30;56942.28;5055511;28;20445;-79
2023/03/31 05:01:31;;;;;;;8.95;1.95;;;10.30;99.90;;;-144.05;80.97;56925.28;5038265;28;20093;-77
2023/03/31 05:03:58;;;;;;;8.20;1.75;;;10.30;99.90;;;-144.05;80.84;56910.44;5055834;28;20488;-77
2023/03/31 05:06:25;;;;;;;7.55;1.58;;;10.40;99.90;;;-144.05;81.33;56904.06;5042068;28;20385;-76
2023/03/31 05:08:50;;;;;;;9.38;1.60;;;10.40;99.90;;;-144.05;81.41;56944.41;5041675;28;20112;-79
2023/03/31 05:11:16;;;;;;;14.32;2.22;;;10.30;99.90;;;-144.05;81.33;56935.91;5057266;28;20063;-77
2023/03/31 05:13:42;;;;;;;10.40;1.63;;;10.30;99.90;;;-144.05;80.82;56942.28;5058054;28;20112;-78
2023/03/31 05:16:13;;;;;;;5.22;1.60;;;10.30;99.90;;;-144.05;80.69;56944.41;5038924;28;20040;-79
2023/03/31 05:18:43;;;;;;;7.20;1.40;;;10.30;99.90;;;-144.05;81.37;56942.28;5057993;28;20067;-78
2023/03/31 05:21:20;;;;;;;8.43;1.98;;;10.30;99.90;;;-144.05;81.56;56906.19;5057634;28;20481;-77
2023/03/31 05:23:47;;;;;;;8.32;1.48;;;10.30;99.90;;;-144.05;80.89;56925.28;5057083;28;20025;-77
2023/03/31 05:26:14;;;;;;;7.60;1.88;;;10.30;99.90;;;-144.05;80.61;56940.16;5057162;28;20025;-79
2023/03/31 05:28:41;;;;;;;13.40;2.33;;;10.30;99.90;;;-144.05;81.54;56935.91;5056668;28;20021;-76
2023/03/31 05:31:08;;;;;;;9.48;1.85;;;10.30;99.90;;;-144.05;82.68;56938.03;5055148;28;20056;-76
2023/03/31 05:33:39;;;;;;;10.35;1.90;;;10.20;99.90;;;-144.05;81.99;56925.28;5037523;28;20393;-77
2023/03/31 05:36:11;;;;;;;7.38;1.75;;;10.20;99.90;;;-144.05;82.22;56940.16;5037733;28;20396;-76
2023/03/31 05:38:39;;;;;;;9.85;1.30;;;10.20;99.90;;;-144.05;81.89;56931.66;5037065;28;20035;-76
2023/03/31 05:41:08;;;;;;;10.13;2.03;;;10.10;99.90;;;-144.05;82.34;56933.78;5055599;28;20025;-77
2023/03/31 05:43:36;;;;;;;10.85;1.70;;;10.10;99.90;;;-144.05;81.82;56942.28;5055941;28;20025;-75
2023/03/31 05:46:02;;;;;;;6.68;1.98;;;10.10;99.90;;;-144.05;82.55;56948.66;5056235;28;20052;-78
2023/03/31 05:48:29;;;;;;;9.30;1.85;;;10.10;99.90;;;-144.05;81.56;56904.06;5037574;28;20035;-76
2023/03/31 05:51:00;;;;;;;5.95;2.10;;;10.10;99.90;;;-144.05;81.32;56925.28;5054870;28;20107;-79
2023/03/31 05:53:26;;;;;;;9.68;1.48;;;10.10;99.90;;;-144.05;81.04;56957.16;5057286;28;20017;-78
2023/03/31 05:56:03;;;;;;;6.55;1.38;;;10.10;99.90;;;-144.05;81.16;56935.91;5038794;28;20151;-77
2023/03/31 05:58:30;;;;;;;6.38;1.67;;;10.10;99.90;;;-144.05;81.00;56921.06;5054503;28;20064;-79
2023/03/31 06:01:09;;;;;;;3.10;1.30;;;10.10;99.90;;;-144.05;81.06;56965.66;5055771;28;20523;-77
2023/03/31 06:03:40;;;;;;;7.07;1.80;;;10.10;99.90;;;-144.05;80.32;56925.28;5037622;28;20094;-78
2023/03/31 06:06:08;;;;;;;4.75;1.77;;;10.20;99.90;;;-144.05;79.28;56944.41;5056450;28;20480;-77
2023/03/31 06:08:36;;;;;;;6.28;1.13;;;10.20;99.90;;;-144.05;79.55;56918.94;5039024;28;20047;-79
2023/03/31 06:11:10;;;;;;;11.95;1.95;;;10.20;99.90;;;-144.05;80.64;56927.41;5039418;28;20021;-77
2023/03/31 06:13:38;;;;;;;3.65;1.35;;;10.20;99.90;;;-144.05;80.04;56914.69;5056626;28;20477;-78
2023/03/31 06:16:05;;;;;;;3.80;1.33;;;10.30;99.90;;;-144.05;78.82;56914.69;5039169;28;20124;-76
2023/03/31 06:18:35;;;;;;;6.18;1.55;;;10.30;99.90;;;-144.05;77.97;56935.91;5038389;28;20052;-79
2023/03/31 06:21:02;;;;;;;5.75;1.30;;;10.30;99.90;;;-144.05;77.82;56929.53;5057507;28;20090;-81
2023/03/31 06:23:28;;;;;;;5.63;1.30;;;10.30;99.90;;;-144.05;78.14;56959.28;5037423;28;20032;-80
2023/03/31 06:26:05;;;;;;;6.28;1.67;;;10.30;99.90;;;-144.05;77.76;56927.41;5057316;28;20032;-77
2023/03/31 06:28:33;;;;;;;4.00;1.20;;;10.40;99.90;;;-144.05;77.19;56946.53;5055988;28;20052;-78
2023/03/31 06:31:14;;;;;;;2.45;1.17;;;10.40;99.90;;;-144.05;76.77;56940.16;5056637;28;20056;-77
2023/03/31 06:33:42;;;;;;;3.75;1.00;;;10.40;99.90;;;-144.05;76.81;56935.91;5059038;28;20089;-80
2023/03/31 06:36:12;;;;;;;6.07;1.15;;;10.40;99.90;;;-144.05;76.41;56908.31;5040637;28;20059;-78
2023/03/31 06:38:39;;;;;;;4.45;1.25;;;10.50;99.90;;;-144.05;76.10;56921.06;5056789;28;20108;-79
2023/03/31 06:41:07;;;;;;;3.88;0.90;;;10.50;99.90;;;-144.05;76.62;56950.78;5056317;28;20025;-77
2023/03/31 06:43:33;;;;;;;9.60;1.27;;;10.50;99.90;;;-144.05;76.03;56925.28;5056481;28;20029;-79
2023/03/31 06:46:00;;;;;;;6.25;1.42;;;10.50;99.90;;;-144.05;77.33;56963.53;5056560;28;20037;-78
2023/03/31 06:48:27;;;;;;;5.03;1.25;;;10.50;99.90;;;-144.05;78.63;56940.16;5037364;28;20060;-81
2023/03/31 06:50:55;;;;;;;4.80;0.95;;;10.40;99.90;;;-144.05;78.43;56959.28;5036743;28;20021;-78
2023/03/31 06:53:21;;;;;;;4.65;1.20;;;10.30;99.90;;;-144.05;79.52;56931.66;5054811;28;20071;-76
2023/03/31 06:55:47;;;;;;;5.75;1.45;;;10.30;99.90;;;-144.05;80.31;56952.91;5037477;28;20049;-78
2023/03/31 06:58:13;;;;;;;4.72;1.15;;;10.20;99.90;;;-144.05;80.68;56950.78;5036871;28;20040;-78
2023/03/31 07:00:39;;;;;;;7.93;1.73;;;10.10;99.90;;;-144.05;80.60;56931.66;5055446;28;20025;-77
2023/03/31 07:03:07;;;;;;;6.18;1.10;;;10.10;99.90;;;-144.05;81.04;56921.06;5055463;28;20127;-76
2023/03/31 07:05:35;;;;;;;4.68;1.10;;;10.10;99.90;;;-144.05;80.87;56946.53;5055610;28;20072;-76
2023/03/31 07:08:01;;;;;;;3.70;0.80;;;10.10;99.90;;;-144.05;81.50;56933.78;5058044;28;20033;-79
2023/03/31 07:10:31;;;;;;;9.13;1.55;;;10.00;99.90;;;-144.05;81.38;56910.44;5040378;28;20475;-79
2023/03/31 07:12:57;;;;;;;7.47;1.17;;;10.00;99.90;;;-144.05;81.65;56916.81;5058025;28;20033;-78
2023/03/31 07:15:27;;;;;;;7.13;1.58;;;10.00;99.90;;;-144.05;81.91;56929.53;5058507;28;20033;-78
2023/03/31 07:18:00;;;;;;;4.03;1.15;;;10.00;99.90;;;-144.05;81.72;56952.91;5058349;28;20029;-79
2023/03/31 07:20:28;;;;;;;9.10;1.38;;;10.00;99.90;;;-144.05;81.99;56933.78;5040259;28;20052;-78
2023/03/31 07:22:54;;;;;;;4.63;1.38;;;10.00;99.90;;;-144.05;81.31;56931.66;5058968;28;20025;-78
2023/03/31 07:25:20;;;;;;;6.57;2.13;;;10.00;99.90;;;-144.05;81.66;56952.91;5039869;28;20035;-78
2023/03/31 07:27:46;;;;;;;3.40;1.10;;;10.00;99.90;;;-144.05;81.57;56942.28;5056975;28;20055;-78
2023/03/31 07:30:18;;;;;;;5.82;0.80;;;10.00;99.90;;;-144.05;81.73;56921.06;5057361;28;20404;-79
2023/03/31 07:32:51;;;;;;;4.07;1.02;;;10.00;99.90;;;-144.05;81.50;56931.66;5057768;28;20032;-77
2023/03/31 07:35:18;;;;;;;5.85;1.10;;;10.00;99.90;;;-144.05;81.82;56961.41;5058849;28;20013;-77
2023/03/31 07:37:48;;;;;;;4.13;0.88;;;10.00;99.90;;;-144.05;82.27;56942.28;5057459;28;20111;-77
2023/03/31 07:40:22;;;;;;;2.88;0.90;;;10.00;99.90;;;-144.05;82.26;56908.31;5057374;28;20107;-78
2023/03/31 07:42:50;;;;;;;3.95;1.55;;;9.90;99.90;;;-144.05;82.03;56955.03;5057520;28;20025;-77
2023/03/31 07:45:23;;;;;;;4.70;1.13;;;9.90;99.90;;;-144.05;82.41;56935.91;5039108;28;20033;-80
2023/03/31 07:47:49;;;;;;;5.45;0.88;;;9.80;99.90;;;-144.05;82.39;56952.91;5057217;28;20108;-80
2023/03/31 07:50:17;;;;;;;3.42;0.90;;;9.80;99.90;;;-144.05;82.01;56946.53;5056701;28;20025;-79
2023/03/31 07:52:44;;;;;;;3.22;1.00;;;9.80;99.90;;;-144.05;83.13;56938.03;5039457;28;20372;-77
2023/03/31 07:55:11;;;;;;;5.15;1.30;;;9.80;99.90;;;-144.05;82.84;56938.03;5039161;28;20377;-78
2023/03/31 07:57:38;;;;;;;3.97;1.10;;;9.80;99.90;;;-144.05;82.39;56948.66;5057409;28;20029;-76
2023/03/31 08:00:08;;;;;;;3.90;0.90;;;9.80;99.90;;;-144.05;81.85;56925.28;5057129;28;20453;-78
2023/03/31 08:02:34;;;;;;;4.88;1.50;;;9.80;99.90;;;-144.05;81.58;56940.16;5039815;28;20127;-79
2023/03/31 08:05:01;;;;;;;6.57;0.80;;;9.80;99.90;;;-144.05;81.33;56950.78;5039750;28;20079;-76
2023/03/31 08:07:29;;;;;;;7.10;1.05;;;9.90;99.90;;;-144.05;81.19;56959.28;5056774;28;20056;-80
2023/03/31 08:09:56;;;;;;;3.60;0.95;;;9.90;99.90;;;-144.05;80.76;56950.78;5039013;28;20029;-76
2023/03/31 08:12:22;;;;;;;4.90;0.93;;;9.90;99.90;;;-144.05;81.22;56950.78;5039456;28;20033;-80
2023/03/31 08:14:48;;;;;;;4.60;0.90;;;9.90;99.90;;;-144.05;81.74;56944.41;5057526;28;20083;-77
2023/03/31 08:17:13;;;;;;;5.00;1.15;;;10.00;99.90;;;-144.05;81.77;56938.03;5057768;28;20041;-79
2023/03/31 08:19:39;;;;;;;2.88;1.10;;;10.00;99.90;;;-144.05;80.63;56938.03;5055800;28;20064;-78
2023/03/31 08:22:06;;;;;;;3.30;1.08;;;10.00;99.90;;;-144.05;80.21;56961.41;5037995;28;20480;-77
2023/03/31 08:24:32;;;;;;;2.25;1.10;;;10.10;99.90;;;-144.05;80.25;56946.53;5038683;28;20039;-76
2023/03/31 08:26:58;;;;;;;5.40;1.45;;;10.10;99.90;;;-144.05;79.69;56933.78;5056903;28;20025;-79
2023/03/31 08:29:24;;;;;;;3.28;1.08;;;10.20;99.90;;;-144.05;79.07;56938.03;5038390;28;20053;-78
2023/03/31 08:31:50;;;;;;;5.03;1.90;;;10.20;99.90;;;-144.05;79.08;56940.16;5056518;28;20384;-77
2023/03/31 08:34:16;;;;;;;2.10;0.88;;;10.30;99.90;;;-144.05;77.84;56942.28;5056691;28;20105;-77
2023/03/31 08:36:42;;;;;;;1.75;0.60;;;10.40;99.90;;;-144.05;77.71;56955.03;5039104;28;20029;-76
2023/03/31 08:39:08;;;;;;;3.03;0.68;;;10.40;99.90;;;-144.05;77.32;56948.66;5055989;28;20040;-77
2023/03/31 08:42:25;;;;;;;2.40;0.70;;;10.50;99.90;;;-144.05;77.03;56961.41;5057486;28;20497;-79
2023/03/31 08:45:29;;;;;;;3.33;0.80;;;10.50;99.90;;;-144.05;76.45;56925.28;5047977;28;20041;-77
2023/03/31 08:48:12;;;;;;;3.72;1.15;;;10.60;99.90;;;-144.05;76.27;56952.91;5058051;28;20036;-79
2023/03/31 08:50:51;;;;;;;4.53;1.00;;;10.60;99.90;;;-144.05;75.33;56933.78;5058250;28;20067;-80
2023/03/31 08:54:01;;;;;;;2.85;1.08;;;10.80;99.90;;;-144.05;74.96;56957.16;5058243;28;20036;-77
2023/03/31 08:56:33;;;;;;;2.20;0.70;;;10.80;99.90;;;-144.05;74.81;56946.53;5058570;28;20109;-79
2023/03/31 08:59:01;;;;;;;3.20;1.30;;;10.80;99.90;;;-144.05;73.96;56948.66;5040149;28;20021;-78
2023/03/31 09:01:58;;;;;;;1.85;0.80;;;10.80;99.90;;;-144.05;73.11;56910.44;5059448;28;20029;-78
2023/03/31 09:04:41;;;;;;;7.75;1.00;;;10.90;99.90;;;-144.05;74.31;56938.03;5058874;28;20535;-78
2023/03/31 09:07:26;;;;;;;11.23;5.43;;;11.00;99.90;;;-144.05;75.17;56946.53;5041758;28;20040;-78
2023/03/31 09:10:21;;;;;;;11.23;4.72;;;10.90;99.90;;;-144.05;75.54;56914.69;5058911;28;20025;-79
2023/03/31 09:13:31;;;;;;;9.15;4.47;;;10.90;99.90;;;-144.05;75.94;56931.66;5059669;28;20017;-77
2023/03/31 09:16:34;;;;;;;7.05;1.38;;;10.80;99.90;;;-144.05;76.59;56914.69;5042323;28;20100;-80
2023/03/31 09:19:01;;;;;;;20.25;9.25;;;10.70;99.90;;;-144.05;77.26;56923.19;5048976;28;20041;-80
2023/03/31 09:21:50;;;;;;;7.32;2.42;;;10.60;99.90;;;-144.05;78.61;56944.41;5059689;28;20037;-81
2023/03/31 09:24:34;;;;;;;2.80;1.05;;;10.50;99.90;;;-144.05;79.27;56925.28;5059807;28;20025;-82
2023/03/31 09:27:10;;;;;;;12.35;2.63;;;10.40;99.90;;;-144.05;78.99;56952.91;5063138;28;20039;-81
2023/03/31 09:29:57;;;;;;;;;;;10.40;99.90;;;-144.05;79.43;56923.19;5065018;28;20029;-79
2023/03/31 09:32:29;;;;;;;6.07;2.95;;;10.30;99.90;;;-144.05;79.39;56950.78;5046895;28;19908;-82
2023/03/31 09:35:24;;;;;;;7.05;1.40;;;10.30;99.90;;;-144.05;79.66;56929.53;5065199;28;20036;-79
2023/03/31 09:37:52;;;;;;;6.82;1.55;;;10.30;99.90;;;-144.05;81.14;56967.78;5068001;28;20047;-78
2023/03/31 09:40:27;;;;;;;4.47;1.35;;;10.50;99.90;;;-144.05;80.15;56923.19;5058211;28;20214;-78
2023/03/31 09:43:05;;;;;;;5.20;1.55;;;10.60;99.90;;;-144.05;80.58;56921.06;5037195;28;20025;-78
2023/03/31 09:45:32;;;;;;;7.57;1.55;;;10.80;99.90;;;-144.05;78.91;56942.28;5055171;28;20025;-79
2023/03/31 09:48:10;;;;;;;5.00;1.50;;;11.00;99.90;;;-144.05;78.83;56940.16;5055248;28;20029;-77
2023/03/31 09:50:51;;;;;;;7.28;1.58;;;11.10;99.90;;;-144.05;77.76;56921.06;5055138;28;20032;-79
2023/03/31 09:53:36;;;;;;;2.92;1.30;;;11.30;99.90;;;-144.05;77.46;56938.03;5037232;28;20412;-77
2023/03/31 09:56:07;;;;;;;5.88;1.60;;;11.30;99.90;;;-144.05;76.91;56912.56;5055705;28;20033;-78
2023/03/31 09:58:45;;;;;;;3.65;1.27;;;11.40;99.90;;;-144.05;75.36;56942.28;5054805;28;20552;-75
2023/03/31 10:01:14;;;;;;;4.68;1.30;;;11.30;99.90;;;-144.05;75.81;56938.03;5055436;28;20040;-78
2023/03/31 10:03:54;;;;;;;9.25;2.72;;;11.40;99.90;;;-144.05;75.62;56938.03;5055659;28;20056;-80
2023/03/31 10:06:23;;;;;;;4.35;1.23;;;11.50;99.90;;;-144.05;74.95;56940.16;5056138;28;20082;-79
2023/03/31 10:09:02;;;;;;;4.88;1.70;;;11.50;99.90;;;-144.05;75.13;56942.28;5056065;28;20044;-78
2023/03/31 10:11:28;;;;;;;8.15;1.55;;;11.50;99.90;;;-144.05;74.88;56974.16;5056396;28;20033;-80
2023/03/31 10:15:10;;;;;;;5.38;1.40;;;11.50;99.90;;;-144.05;75.40;56923.19;5038097;28;20037;-78
2023/03/31 10:17:47;;;;;;;6.45;2.00;;;11.40;99.90;;;-144.05;76.16;56914.69;5034423;28;20041;-77
2023/03/31 10:20:37;;;;;;;6.45;1.38;;;11.50;99.90;;;-144.05;75.57;56944.41;5055190;28;20025;-77
2023/03/31 10:23:26;;;;;;;4.85;1.17;;;11.40;99.90;;;-144.05;75.33;56933.78;5055114;28;20025;-78
2023/03/31 10:25:53;;;;;;;6.13;1.45;;;11.50;99.90;;;-144.05;76.34;56923.19;5054884;28;20079;-78
2023/03/31 10:28:21;;;;;;;8.70;1.92;;;11.60;99.90;;;-144.05;75.77;56938.03;5037893;28;20072;-78
2023/03/31 10:31:02;;;;;;;6.70;1.95;;;11.60;99.90;;;-144.05;74.49;56942.28;5056830;28;20021;-78
2023/03/31 10:33:33;;;;;;;8.38;1.98;;;11.70;99.90;;;-144.05;73.48;56944.41;5056822;28;20079;-80
2023/03/31 10:36:27;;;;;;;5.63;1.63;;;11.80;99.90;;;-144.05;73.52;56912.56;5056906;28;20036;-78
2023/03/31 10:38:56;;;;;;;5.95;2.35;;;11.90;99.90;;;-144.05;73.86;56938.03;5055240;28;20029;-80